createdAt,value
2022-08-01T00:00:54.580Z,99216.16
2022-08-01T00:03:56.655Z,99216.88
2022-08-01T00:06:58.715Z,99215.31
2022-08-01T00:10:00.811Z,99215.38
2022-08-01T00:13:02.898Z,99213.31
2022-08-01T00:16:05.123Z,99208.03
2022-08-01T00:19:07.278Z,99200.91
2022-08-01T00:22:09.787Z,99201.41
2022-08-01T00:25:11.999Z,99203.25
2022-08-01T00:28:14.554Z,99195.16
2022-08-01T00:31:16.664Z,99188.03
2022-08-01T00:34:18.764Z,99183.44
2022-08-01T00:37:20.926Z,99172.25
2022-08-01T00:40:23.499Z,99175.88
2022-08-01T00:43:25.636Z,99178.66
2022-08-01T00:46:27.716Z,99181.66
2022-08-01T00:49:29.825Z,99182.56
2022-08-01T00:52:32.842Z,99181.41
2022-08-01T00:55:34.950Z,99174.56
2022-08-01T00:58:37.423Z,99173.50
2022-08-01T01:01:40.431Z,99172.53
2022-08-01T01:04:48.726Z,99163.63
2022-08-01T01:08:13.228Z,99172.47
2022-08-01T01:11:27.037Z,99166.22
2022-08-01T01:15:09.459Z,99167.06
2022-08-01T01:18:16.231Z,99164.84
2022-08-01T01:21:18.251Z,99175.88
2022-08-01T01:24:50.932Z,99164.84
2022-08-01T01:28:09.690Z,99174.69
2022-08-01T01:31:12.128Z,99185.38
2022-08-01T01:34:15.030Z,99186.56
2022-08-01T01:37:19.775Z,99181.91
2022-08-01T01:40:23.303Z,99171.06
2022-08-01T01:43:29.142Z,99167.22
2022-08-01T01:46:35.944Z,99177.16
2022-08-01T01:49:38.198Z,99181.13
2022-08-01T01:52:41.125Z,99161.88
2022-08-01T01:55:49.725Z,99167.91
2022-08-01T01:58:57.582Z,99172.94
2022-08-01T02:02:05.635Z,99177.59
2022-08-01T02:05:10.231Z,99171.50
2022-08-01T02:08:13.939Z,99167.97
2022-08-01T02:11:23.074Z,99174.81
2022-08-01T02:14:25.343Z,99161.06
2022-08-01T02:17:27.483Z,99161.28
2022-08-01T02:20:31.146Z,99167.97
2022-08-01T02:23:34.801Z,99154.78
2022-08-01T02:26:37.699Z,99158.97
2022-08-01T02:29:59.503Z,99155.31
2022-08-01T02:33:15.798Z,99160.00
2022-08-01T02:36:30.324Z,99156.84
2022-08-01T02:39:35.307Z,99155.50
2022-08-01T02:42:37.899Z,99149.63
2022-08-01T02:45:44.618Z,99146.56
2022-08-01T02:48:46.878Z,99141.03
2022-08-01T02:51:49.247Z,99137.97
2022-08-01T02:54:52.679Z,99143.44
2022-08-01T02:57:59.314Z,99144.28
2022-08-01T03:01:03.334Z,99137.66
2022-08-01T03:04:06.224Z,99151.66
2022-08-01T03:07:10.407Z,99149.03
2022-08-01T03:10:12.563Z,99138.03
2022-08-01T03:13:14.761Z,99126.34
2022-08-01T03:16:16.951Z,99124.41
2022-08-01T03:19:19.538Z,99125.41
2022-08-01T03:22:24.027Z,99115.06
2022-08-01T03:25:26.154Z,99117.69
2022-08-01T03:28:29.568Z,99125.19
2022-08-01T03:31:31.848Z,99115.97
2022-08-01T03:34:33.999Z,99122.34
2022-08-01T03:38:06.302Z,99118.38
2022-08-01T03:41:16.879Z,99115.44
2022-08-01T03:44:21.879Z,99117.97
2022-08-01T03:47:27.364Z,99119.94
2022-08-01T03:50:30.918Z,99111.69
2022-08-01T03:53:33.282Z,99105.41
2022-08-01T03:56:35.398Z,99101.91
2022-08-01T03:59:40.610Z,99108.41
2022-08-01T04:02:42.786Z,99112.66
2022-08-01T04:05:44.986Z,99107.78
2022-08-01T04:08:56.544Z,99106.00
2022-08-01T04:12:01.033Z,99107.38
2022-08-01T04:15:11.098Z,99109.00
2022-08-01T04:18:13.174Z,99108.28
2022-08-01T04:21:15.533Z,99109.84
2022-08-01T04:24:19.468Z,99114.59
2022-08-01T04:27:48.486Z,99106.91
2022-08-01T04:30:59.726Z,99112.09
2022-08-01T04:34:05.875Z,99111.50
2022-08-01T04:37:10.643Z,99106.22
2022-08-01T04:40:15.243Z,99108.88
2022-08-01T04:43:17.334Z,99108.06
2022-08-01T04:46:19.527Z,99099.91
2022-08-01T04:49:25.432Z,99104.28
2022-08-01T04:52:38.092Z,99105.31
2022-08-01T04:55:40.511Z,99108.41
2022-08-01T04:58:43.234Z,99109.72
2022-08-01T05:01:50.821Z,99106.03
2022-08-01T05:04:52.924Z,99103.91
2022-08-01T05:07:55.134Z,99109.47
2022-08-01T05:10:57.207Z,99112.25
2022-08-01T05:13:59.304Z,99115.16
2022-08-01T05:17:04.887Z,99120.03
2022-08-01T05:20:07.486Z,99120.44
2022-08-01T05:23:10.983Z,99122.00
2022-08-01T05:26:19.320Z,99126.47
2022-08-01T05:29:21.379Z,99125.78
2022-08-01T05:32:23.441Z,99108.50
2022-08-01T05:35:48.097Z,99113.97
2022-08-01T05:38:47.614Z,99117.56
2022-08-01T05:41:49.688Z,99115.53
2022-08-01T05:44:51.876Z,99115.38
2022-08-01T05:47:54.139Z,99119.84
2022-08-01T05:50:58.582Z,99125.69
2022-08-01T05:54:01.119Z,99127.09
2022-08-01T05:57:03.667Z,99133.34
2022-08-01T06:00:06.892Z,99126.56
2022-08-01T06:03:15.328Z,99125.44
2022-08-01T06:06:17.706Z,99133.22
2022-08-01T06:09:19.844Z,99130.13
2022-08-01T06:12:21.916Z,99137.31
2022-08-01T06:15:25.454Z,99135.06
2022-08-01T06:18:27.620Z,99135.78
2022-08-01T06:21:29.704Z,99135.47
2022-08-01T06:24:31.922Z,99138.56
2022-08-01T06:27:36.436Z,99144.25
2022-08-01T06:30:38.522Z,99132.50
2022-08-01T06:33:40.801Z,99134.59
2022-08-01T06:36:42.867Z,99143.25
2022-08-01T06:39:44.955Z,99134.25
2022-08-01T06:42:47.648Z,99146.22
2022-08-01T06:45:49.912Z,99138.47
2022-08-01T06:48:52.007Z,99138.22
2022-08-01T06:51:54.151Z,99141.50
2022-08-01T06:54:56.223Z,99134.88
2022-08-01T06:57:58.393Z,99137.25
2022-08-01T07:01:00.517Z,99137.94
2022-08-01T07:04:03.699Z,99145.75
2022-08-01T07:07:05.861Z,99144.47
2022-08-01T07:10:09.573Z,99145.41
2022-08-01T07:13:13.240Z,99136.59
2022-08-01T07:16:15.823Z,99133.53
2022-08-01T07:19:18.211Z,99138.41
2022-08-01T07:22:23.225Z,99137.22
2022-08-01T07:25:25.791Z,99144.50
2022-08-01T07:28:28.569Z,99135.38
2022-08-01T07:31:32.514Z,99131.06
2022-08-01T07:34:34.735Z,99129.81
2022-08-01T07:37:44.287Z,99124.50
2022-08-01T07:40:51.374Z,99134.59
2022-08-01T07:43:58.002Z,99131.03
2022-08-01T07:47:02.786Z,99134.97
2022-08-01T07:50:06.872Z,99129.09
2022-08-01T07:53:11.173Z,99126.59
2022-08-01T07:56:13.229Z,99122.03
2022-08-01T07:59:15.514Z,99112.56
2022-08-01T08:02:28.289Z,99110.75
2022-08-01T08:05:58.461Z,99106.91
2022-08-01T08:08:54.479Z,99115.31
2022-08-01T08:11:56.610Z,99117.19
2022-08-01T08:15:02.105Z,99122.25
2022-08-01T08:18:07.438Z,99118.72
2022-08-01T08:21:09.523Z,99116.66
2022-08-01T08:24:20.866Z,99112.81
2022-08-01T08:27:29.076Z,99110.59
2022-08-01T08:30:31.218Z,99109.03
2022-08-01T08:33:33.514Z,99113.47
2022-08-01T08:36:35.646Z,99109.56
2022-08-01T08:39:41.854Z,99111.09
2022-08-01T08:42:44.499Z,99109.69
2022-08-01T08:45:58.928Z,99108.56
2022-08-01T08:49:04.484Z,99110.75
2022-08-01T08:52:09.267Z,99106.66
2022-08-01T08:55:11.951Z,99115.53
2022-08-01T08:58:14.463Z,99113.69
2022-08-01T09:01:18.588Z,99109.94
2022-08-01T09:04:26.091Z,99111.81
2022-08-01T09:07:28.908Z,99103.53
2022-08-01T09:10:30.983Z,99089.59
2022-08-01T09:13:34.405Z,99091.47
2022-08-01T09:16:37.782Z,99094.97
2022-08-01T09:19:45.945Z,99086.34
2022-08-01T09:22:48.093Z,99089.59
2022-08-01T09:25:56.877Z,99081.56
2022-08-01T09:29:06.440Z,99064.41
2022-08-01T09:32:09.465Z,99081.78
2022-08-01T09:35:30.745Z,99078.88
2022-08-01T09:38:33.810Z,99096.19
2022-08-01T09:41:37.565Z,99088.53
2022-08-01T09:44:54.619Z,99070.22
2022-08-01T09:47:57.529Z,99071.16
2022-08-01T09:51:04.749Z,99071.78
2022-08-01T09:54:11.395Z,99076.47
2022-08-01T09:57:18.651Z,99071.72
2022-08-01T10:00:43.801Z,99070.63
2022-08-01T10:03:42.822Z,99072.50
2022-08-01T10:06:53.514Z,99071.63
2022-08-01T10:09:55.673Z,99077.53
2022-08-01T10:12:59.782Z,99086.66
2022-08-01T10:16:02.347Z,99080.47
2022-08-01T10:19:10.997Z,99086.13
2022-08-01T10:22:19.947Z,99069.84
2022-08-01T10:25:42.709Z,99078.16
2022-08-01T10:28:45.867Z,99065.13
2022-08-01T10:31:50.342Z,99065.22
2022-08-01T10:34:52.994Z,99071.16
2022-08-01T10:37:59.051Z,99075.81
2022-08-01T10:41:01.164Z,99079.72
2022-08-01T10:44:09.354Z,99087.22
2022-08-01T10:47:14.201Z,99091.22
2022-08-01T10:50:32.723Z,99086.75
2022-08-01T10:53:42.818Z,99071.09
2022-08-01T10:56:50.539Z,99073.81
2022-08-01T11:00:01.585Z,99074.31
2022-08-01T11:03:04.719Z,99082.22
2022-08-01T11:06:07.547Z,99079.56
2022-08-01T11:09:38.970Z,99067.66
2022-08-01T11:12:41.839Z,99070.41
2022-08-01T11:15:50.141Z,99079.25
2022-08-01T11:18:52.998Z,99070.47
2022-08-01T11:22:01.597Z,99071.94
2022-08-01T11:25:04.591Z,99060.19
2022-08-01T11:28:28.224Z,99062.03
2022-08-01T11:31:37.491Z,99057.91
2022-08-01T11:34:58.888Z,99049.00
2022-08-01T11:38:29.089Z,99056.97
2022-08-01T11:41:37.242Z,99058.38
2022-08-01T11:44:51.273Z,99046.34
2022-08-01T11:47:53.539Z,99053.31
2022-08-01T11:50:57.299Z,99050.06
2022-08-01T11:53:59.995Z,99049.47
2022-08-01T11:57:33.922Z,99037.44
2022-08-01T12:00:38.238Z,99042.00
2022-08-01T12:03:46.146Z,99046.00
2022-08-01T12:06:48.373Z,99036.91
2022-08-01T12:10:15.278Z,99041.53
2022-08-01T12:13:21.748Z,99016.44
2022-08-01T12:16:23.990Z,99047.22
2022-08-01T12:19:37.529Z,99023.59
2022-08-01T12:22:39.769Z,99019.88
2022-08-01T12:25:48.312Z,99013.97
2022-08-01T12:28:52.227Z,99019.50
2022-08-01T12:31:54.789Z,99011.28
2022-08-01T12:34:57.116Z,99020.84
2022-08-01T12:38:14.411Z,99009.00
2022-08-01T12:41:16.528Z,99009.88
2022-08-01T12:44:18.652Z,98980.75
2022-08-01T12:47:21.300Z,98986.13
2022-08-01T12:50:24.917Z,98982.41
2022-08-01T12:53:40.886Z,98984.59
2022-08-01T12:56:43.504Z,98982.47
2022-08-01T12:59:49.470Z,98994.56
2022-08-01T13:03:15.398Z,98989.88
2022-08-01T13:06:18.206Z,98984.44
2022-08-01T13:09:20.586Z,98977.75
2022-08-01T13:12:25.359Z,98977.16
2022-08-01T13:15:33.138Z,98971.66
2022-08-01T13:18:35.949Z,98973.16
2022-08-01T13:21:52.498Z,98969.78
2022-08-01T13:25:20.800Z,98953.28
2022-08-01T13:28:28.364Z,98968.53
2022-08-01T13:31:34.593Z,98951.53
2022-08-01T13:34:36.728Z,98959.91
2022-08-01T13:37:43.320Z,98945.44
2022-08-01T13:40:45.408Z,98945.22
2022-08-01T13:43:58.390Z,98939.97
2022-08-01T13:47:02.378Z,98953.59
2022-08-01T13:50:17.977Z,98963.03
2022-08-01T13:53:20.105Z,98953.25
2022-08-01T13:56:22.261Z,98936.63
2022-08-01T13:59:24.351Z,98935.22
2022-08-01T14:02:28.036Z,98950.91
2022-08-01T14:05:30.960Z,98929.94
2022-08-01T14:08:33.074Z,98934.41
2022-08-01T14:11:37.195Z,98939.44
2022-08-01T14:14:39.808Z,98922.38
2022-08-01T14:17:47.631Z,98907.78
2022-08-01T14:20:50.669Z,98905.13
2022-08-01T14:23:55.986Z,98913.09
2022-08-01T14:26:58.112Z,98919.34
2022-08-01T14:30:03.774Z,98938.44
2022-08-01T14:33:06.284Z,98925.19
2022-08-01T14:36:31.053Z,98923.56
2022-08-01T14:39:30.567Z,98914.94
2022-08-01T14:42:32.691Z,98902.78
2022-08-01T14:45:34.833Z,98903.09
2022-08-01T14:48:37.042Z,98904.34
2022-08-01T14:51:39.502Z,98912.41
2022-08-01T14:54:41.584Z,98919.69
2022-08-01T14:57:43.660Z,98900.09
2022-08-01T15:00:46.414Z,98913.25
2022-08-01T15:03:49.075Z,98896.16
2022-08-01T15:06:51.186Z,98890.66
2022-08-01T15:09:53.999Z,98891.81
2022-08-01T15:12:56.688Z,98898.53
2022-08-01T15:16:00.162Z,98899.97
2022-08-01T15:19:02.488Z,98892.75
2022-08-01T15:22:04.958Z,98905.69
2022-08-01T15:25:07.599Z,98896.41
2022-08-01T15:28:10.834Z,98887.53
2022-08-01T15:31:14.399Z,98870.63
2022-08-01T15:34:16.673Z,98879.31
2022-08-01T15:37:18.787Z,98872.34
2022-08-01T15:40:21.369Z,98879.47
2022-08-01T15:43:23.465Z,98872.53
2022-08-01T15:46:29.604Z,98868.63
2022-08-01T15:49:32.049Z,98877.81
2022-08-01T15:52:34.174Z,98868.50
2022-08-01T15:55:38.283Z,98869.84
2022-08-01T15:58:40.624Z,98868.25
2022-08-01T16:01:42.857Z,98857.06
2022-08-01T16:04:45.135Z,98856.44
2022-08-01T16:07:57.067Z,98848.28
2022-08-01T16:11:03.716Z,98840.81
2022-08-01T16:14:06.707Z,98850.84
2022-08-01T16:17:08.862Z,98841.97
2022-08-01T16:20:11.411Z,98816.56
2022-08-01T16:23:15.043Z,98832.88
2022-08-01T16:26:27.390Z,98838.00
2022-08-01T16:29:32.005Z,98829.13
2022-08-01T16:32:40.434Z,98843.19
2022-08-01T16:35:51.300Z,98823.97
2022-08-01T16:38:53.412Z,98819.81
2022-08-01T16:41:55.584Z,98810.47
2022-08-01T16:44:59.486Z,98812.41
2022-08-01T16:48:01.626Z,98804.72
2022-08-01T16:51:04.186Z,98796.63
2022-08-01T16:54:24.670Z,98789.78
2022-08-01T16:57:28.643Z,98797.88
2022-08-01T17:00:30.775Z,98787.84
2022-08-01T17:03:51.642Z,98780.59
2022-08-01T17:06:54.927Z,98781.44
2022-08-01T17:09:57.063Z,98786.34
2022-08-01T17:12:59.234Z,98786.34
2022-08-01T17:16:01.384Z,98773.19
2022-08-01T17:19:03.797Z,98770.09
2022-08-01T17:22:06.027Z,98762.25
2022-08-01T17:25:09.123Z,98768.19
2022-08-01T17:28:18.411Z,98753.38
2022-08-01T17:31:20.497Z,98748.91
2022-08-01T17:34:22.608Z,98742.06
2022-08-01T17:37:25.595Z,98741.41
2022-08-01T17:40:40.180Z,98733.56
2022-08-01T17:43:42.803Z,98733.66
2022-08-01T17:46:44.882Z,98729.34
2022-08-01T17:49:54.891Z,98720.72
2022-08-01T17:52:57.363Z,98718.53
2022-08-01T17:56:00.792Z,98707.78
2022-08-01T17:59:03.034Z,98710.47
2022-08-01T18:02:05.367Z,98702.44
2022-08-01T18:05:09.504Z,98708.81
2022-08-01T18:08:13.019Z,98694.72
2022-08-01T18:11:16.609Z,98696.31
2022-08-01T18:14:18.836Z,98702.78
2022-08-01T18:17:21.199Z,98693.81
2022-08-01T18:20:24.298Z,98699.09
2022-08-01T18:23:26.499Z,98690.25
2022-08-01T18:26:29.270Z,98680.44
2022-08-01T18:29:47.156Z,98687.59
2022-08-01T18:32:50.799Z,98682.22
2022-08-01T18:35:53.714Z,98675.13
2022-08-01T18:38:56.420Z,98687.78
2022-08-01T18:42:00.180Z,98671.81
2022-08-01T18:45:02.468Z,98671.41
2022-08-01T18:48:05.195Z,98680.22
2022-08-01T18:51:08.571Z,98670.72
2022-08-01T18:54:14.854Z,98658.84
2022-08-01T18:57:17.071Z,98664.22
2022-08-01T19:00:23.257Z,98669.19
2022-08-01T19:03:25.409Z,98649.13
2022-08-01T19:06:28.367Z,98648.88
2022-08-01T19:09:30.476Z,98650.44
2022-08-01T19:12:32.599Z,98650.13
2022-08-01T19:15:35.426Z,98632.91
2022-08-01T19:18:38.222Z,98624.66
2022-08-01T19:21:44.643Z,98619.19
2022-08-01T19:24:47.214Z,98627.38
2022-08-01T19:27:49.972Z,98629.22
2022-08-01T19:30:53.661Z,98625.91
2022-08-01T19:33:57.240Z,98630.03
2022-08-01T19:36:59.381Z,98619.72
2022-08-01T19:40:01.502Z,98615.75
2022-08-01T19:43:03.612Z,98613.16
2022-08-01T19:46:06.151Z,98617.63
2022-08-01T19:49:21.880Z,98599.06
2022-08-01T19:52:26.192Z,98606.88
2022-08-01T19:55:28.761Z,98612.06
2022-08-01T19:58:30.891Z,98605.59
2022-08-01T20:01:32.967Z,98599.69
2022-08-01T20:04:35.397Z,98593.19
2022-08-01T20:07:37.516Z,98597.50
2022-08-01T20:10:40.413Z,98590.78
2022-08-01T20:13:42.511Z,98591.00
2022-08-01T20:16:44.873Z,98596.19
2022-08-01T20:19:47.959Z,98586.94
2022-08-01T20:22:52.110Z,98583.06
2022-08-01T20:25:58.384Z,98574.03
2022-08-01T20:29:00.471Z,98567.97
2022-08-01T20:32:02.657Z,98566.09
2022-08-01T20:35:06.487Z,98554.91
2022-08-01T20:38:08.595Z,98552.72
2022-08-01T20:41:13.467Z,98558.34
2022-08-01T20:44:15.544Z,98549.38
2022-08-01T20:47:18.853Z,98538.94
2022-08-01T20:50:54.224Z,98537.34
2022-08-01T20:53:57.118Z,98536.00
2022-08-01T20:57:00.894Z,98529.56
2022-08-01T21:00:05.164Z,98528.28
2022-08-01T21:03:19.531Z,98536.38
2022-08-01T21:06:23.369Z,98543.53
2022-08-01T21:09:25.654Z,98543.41
2022-08-01T21:12:43.753Z,98524.56
2022-08-01T21:15:59.905Z,98517.88
2022-08-01T21:19:19.951Z,98516.69
2022-08-01T21:22:35.449Z,98517.66
2022-08-01T21:25:37.619Z,98499.28
2022-08-01T21:28:40.216Z,98502.94
2022-08-01T21:32:16.483Z,98496.00
2022-08-01T21:35:19.053Z,98493.16
2022-08-01T21:38:22.043Z,98495.38
2022-08-01T21:41:56.052Z,98486.75
2022-08-01T21:44:51.143Z,98483.44
2022-08-01T21:47:53.500Z,98474.84
2022-08-01T21:51:07.567Z,98477.91
2022-08-01T21:54:21.341Z,98454.94
2022-08-01T21:57:47.777Z,98462.75
2022-08-01T22:00:54.190Z,98454.31
2022-08-01T22:03:56.641Z,98452.81
2022-08-01T22:06:58.697Z,98448.38
2022-08-01T22:10:05.472Z,98435.06
2022-08-01T22:13:07.909Z,98428.88
2022-08-01T22:16:09.990Z,98430.69
2022-08-01T22:19:43.867Z,98419.41
2022-08-01T22:22:51.651Z,98417.75
2022-08-01T22:25:55.463Z,98422.88
2022-08-01T22:28:57.579Z,98415.22
2022-08-01T22:31:59.674Z,98405.59
2022-08-01T22:35:03.892Z,98393.75
2022-08-01T22:38:06.021Z,98387.88
2022-08-01T22:41:16.470Z,98391.34
2022-08-01T22:44:25.327Z,98384.13
2022-08-01T22:47:49.799Z,98375.06
2022-08-01T22:51:01.289Z,98376.44
2022-08-01T22:54:09.803Z,98382.16
2022-08-01T22:57:16.841Z,98374.69
2022-08-01T23:00:19.035Z,98375.81
2022-08-01T23:03:33.326Z,98366.69
2022-08-01T23:06:45.038Z,98363.63
2022-08-01T23:09:53.472Z,98349.06
2022-08-01T23:12:56.686Z,98330.66
2022-08-01T23:16:00.230Z,98312.59
2022-08-01T23:19:02.325Z,98314.75
2022-08-01T23:22:04.828Z,98313.59
2022-08-01T23:25:12.584Z,98298.09
2022-08-01T23:28:15.661Z,98299.47
2022-08-01T23:31:17.753Z,98283.75
2022-08-01T23:34:20.291Z,98288.22
2022-08-01T23:37:22.517Z,98300.03
2022-08-01T23:40:24.838Z,98286.00
2022-08-01T23:43:27.279Z,98283.63
2022-08-01T23:46:29.928Z,98286.50
2022-08-01T23:49:32.182Z,98283.50
2022-08-01T23:52:34.471Z,98272.63
2022-08-01T23:55:38.982Z,98276.16
2022-08-01T23:58:41.116Z,98268.34
